createdAt,value
2022-11-15T00:00:47.618Z,5.93
2022-11-15T00:03:15.962Z,7.07
2022-11-15T00:05:43.262Z,7.10
2022-11-15T00:08:10.474Z,11.93
2022-11-15T00:10:38.076Z,8.03
2022-11-15T00:13:13.634Z,7.83
2022-11-15T00:15:41.536Z,9.50
2022-11-15T00:18:13.614Z,10.23
2022-11-15T00:20:40.466Z,5.90
2022-11-15T00:23:07.277Z,7.67
2022-11-15T00:25:34.287Z,10.60
2022-11-15T00:28:01.677Z,6.13
2022-11-15T00:30:29.042Z,11.80
2022-11-15T00:32:55.964Z,9.40
2022-11-15T00:35:23.366Z,7.53
2022-11-15T00:37:50.004Z,8.70
2022-11-15T00:40:16.994Z,6.50
2022-11-15T00:42:43.685Z,9.23
2022-11-15T00:45:10.876Z,7.00
2022-11-15T00:47:37.549Z,9.97
2022-11-15T00:50:05.204Z,8.07
2022-11-15T00:52:31.921Z,4.90
2022-11-15T00:54:58.554Z,8.80
2022-11-15T00:57:25.179Z,6.97
2022-11-15T00:59:51.841Z,9.30
2022-11-15T01:02:18.560Z,9.40
2022-11-15T01:04:45.245Z,9.00
2022-11-15T01:07:12.005Z,5.27
2022-11-15T01:09:38.734Z,6.20
2022-11-15T01:12:05.822Z,9.90
2022-11-15T01:14:32.501Z,6.67
2022-11-15T01:16:59.214Z,7.90
2022-11-15T01:19:25.937Z,6.03
2022-11-15T01:21:52.864Z,4.70
2022-11-15T01:24:19.621Z,6.07
2022-11-15T01:26:46.454Z,7.23
2022-11-15T01:29:13.445Z,7.47
2022-11-15T01:31:40.154Z,4.60
2022-11-15T01:34:07.050Z,5.33
2022-11-15T01:36:33.744Z,9.00
2022-11-15T01:39:00.665Z,4.67
2022-11-15T01:41:33.805Z,9.07
2022-11-15T01:44:37.303Z,5.40
2022-11-15T01:47:26.121Z,4.07
2022-11-15T01:50:04.233Z,8.73
2022-11-15T01:52:32.713Z,8.10
2022-11-15T01:55:14.872Z,12.53
2022-11-15T01:57:43.034Z,14.23
2022-11-15T02:00:10.498Z,8.27
2022-11-15T02:02:37.520Z,7.73
2022-11-15T02:05:04.893Z,7.60
2022-11-15T02:07:32.727Z,7.60
2022-11-15T02:10:20.885Z,6.57
2022-11-15T02:12:48.060Z,6.30
2022-11-15T02:15:15.036Z,8.57
2022-11-15T02:17:50.724Z,14.53
2022-11-15T02:20:35.912Z,8.57
2022-11-15T02:23:40.345Z,4.60
2022-11-15T02:26:22.052Z,5.50
2022-11-15T02:29:00.884Z,2.80
2022-11-15T02:31:29.964Z,3.77
2022-11-15T02:34:21.824Z,2.77
2022-11-15T02:37:11.909Z,4.17
2022-11-15T02:39:50.521Z,4.70
2022-11-15T02:43:06.945Z,3.73
2022-11-15T02:45:40.727Z,4.70
2022-11-15T02:48:08.549Z,6.03
2022-11-15T02:50:35.514Z,6.00
2022-11-15T02:53:02.236Z,2.50
2022-11-15T02:55:37.880Z,4.90
2022-11-15T02:58:29.352Z,3.70
2022-11-15T03:01:02.577Z,3.43
2022-11-15T03:03:50.245Z,3.17
2022-11-15T03:06:34.124Z,4.53
2022-11-15T03:09:08.879Z,4.00
2022-11-15T03:11:39.584Z,3.67
2022-11-15T03:14:27.973Z,4.03
2022-11-15T03:17:00.107Z,2.87
2022-11-15T03:19:47.334Z,4.00
2022-11-15T03:22:17.903Z,4.13
2022-11-15T03:24:46.954Z,4.17
2022-11-15T03:27:17.152Z,4.30
2022-11-15T03:29:52.004Z,3.80
2022-11-15T03:32:23.258Z,3.50
2022-11-15T03:35:10.920Z,3.80
2022-11-15T03:38:05.544Z,3.67
2022-11-15T03:40:40.636Z,4.10
2022-11-15T03:43:07.284Z,9.03
2022-11-15T03:45:38.506Z,2.30
2022-11-15T03:48:11.784Z,7.47
2022-11-15T03:50:38.444Z,3.93
2022-11-15T03:53:05.226Z,8.30
2022-11-15T03:55:33.491Z,14.53
2022-11-15T03:58:01.593Z,3.70
2022-11-15T04:00:29.084Z,5.03
2022-11-15T04:02:55.795Z,5.23
2022-11-15T04:05:22.627Z,4.37
2022-11-15T04:07:49.303Z,6.23
2022-11-15T04:10:16.546Z,4.03
2022-11-15T04:12:47.365Z,4.27
2022-11-15T04:15:19.803Z,5.90
2022-11-15T04:17:48.667Z,7.63
2022-11-15T04:20:37.593Z,3.73
2022-11-15T04:23:25.594Z,6.40
2022-11-15T04:25:53.517Z,8.10
2022-11-15T04:28:20.442Z,13.03
2022-11-15T04:30:47.336Z,11.40
2022-11-15T04:33:14.053Z,17.23
2022-11-15T04:35:41.135Z,18.63
2022-11-15T04:38:09.503Z,10.63
2022-11-15T04:40:37.404Z,8.10
2022-11-15T04:43:04.911Z,7.80
2022-11-15T04:45:31.832Z,6.80
2022-11-15T04:47:58.672Z,7.90
2022-11-15T04:50:26.646Z,5.57
2022-11-15T04:52:55.091Z,8.27
2022-11-15T04:55:22.063Z,6.67
2022-11-15T04:57:48.823Z,6.00
2022-11-15T05:00:17.822Z,7.00
2022-11-15T05:03:03.201Z,11.77
2022-11-15T05:05:29.933Z,8.83
2022-11-15T05:07:56.653Z,4.13
2022-11-15T05:10:23.343Z,6.13
2022-11-15T05:12:50.083Z,5.33
2022-11-15T05:15:16.861Z,6.10
2022-11-15T05:17:43.753Z,7.83
2022-11-15T05:20:11.315Z,9.93
2022-11-15T05:22:37.870Z,4.30
2022-11-15T05:25:05.269Z,6.43
2022-11-15T05:27:32.080Z,6.77
2022-11-15T05:29:58.669Z,5.87
2022-11-15T05:32:25.638Z,4.80
2022-11-15T05:34:52.650Z,9.77
2022-11-15T05:37:19.245Z,9.00
2022-11-15T05:39:46.122Z,7.33
2022-11-15T05:42:14.932Z,10.37
2022-11-15T05:44:44.351Z,7.67
2022-11-15T05:47:16.330Z,6.53
2022-11-15T05:49:44.890Z,28.63
2022-11-15T05:52:14.485Z,13.50
2022-11-15T05:54:41.423Z,10.47
2022-11-15T05:57:08.352Z,11.67
2022-11-15T05:59:35.695Z,16.10
2022-11-15T06:02:02.559Z,16.30
2022-11-15T06:04:29.602Z,17.23
2022-11-15T06:06:56.461Z,30.60
2022-11-15T06:09:23.243Z,11.20
2022-11-15T06:11:50.402Z,13.13
2022-11-15T06:14:17.121Z,14.50
2022-11-15T06:16:44.614Z,12.00
2022-11-15T06:19:11.376Z,16.67
2022-11-15T06:21:38.164Z,10.90
2022-11-15T06:24:06.207Z,9.50
2022-11-15T06:26:32.998Z,10.23
2022-11-15T06:28:59.776Z,7.13
2022-11-15T06:31:26.455Z,23.40
2022-11-15T06:33:53.227Z,13.57
2022-11-15T06:36:20.035Z,15.57
2022-11-15T06:38:46.784Z,15.73
2022-11-15T06:41:14.588Z,10.43
2022-11-15T06:43:41.846Z,12.40
2022-11-15T06:46:08.797Z,11.20
2022-11-15T06:48:36.155Z,14.17
2022-11-15T06:51:04.138Z,16.97
2022-11-15T06:53:31.579Z,18.83
2022-11-15T06:56:03.142Z,15.90
2022-11-15T06:58:30.333Z,20.10
2022-11-15T07:01:02.088Z,11.33
2022-11-15T07:03:29.178Z,19.93
2022-11-15T07:05:58.503Z,19.10
2022-11-15T07:08:29.685Z,15.03
2022-11-15T07:11:00.655Z,17.07
2022-11-15T07:13:28.085Z,9.33
2022-11-15T07:15:54.807Z,11.67
2022-11-15T07:18:21.995Z,20.33
2022-11-15T07:20:48.735Z,27.80
2022-11-15T07:23:15.544Z,7.83
2022-11-15T07:25:42.315Z,7.47
2022-11-15T07:28:09.286Z,6.50
2022-11-15T07:30:38.972Z,4.10
2022-11-15T07:33:09.278Z,3.80
2022-11-15T07:35:35.984Z,6.63
2022-11-15T07:38:03.986Z,6.10
2022-11-15T07:40:32.844Z,6.47
2022-11-15T07:43:03.759Z,4.77
2022-11-15T07:45:30.986Z,13.10
2022-11-15T07:47:58.115Z,6.80
2022-11-15T07:50:25.776Z,8.23
2022-11-15T07:52:56.796Z,8.33
2022-11-15T07:55:28.277Z,15.50
2022-11-15T07:58:01.617Z,24.03
2022-11-15T08:00:28.515Z,14.43
2022-11-15T08:03:05.658Z,14.73
2022-11-15T08:05:32.916Z,17.40
2022-11-15T08:07:59.767Z,15.13
2022-11-15T08:10:27.357Z,13.23
2022-11-15T08:13:00.987Z,12.93
2022-11-15T08:15:28.378Z,11.27
2022-11-15T08:17:59.637Z,17.77
2022-11-15T08:20:27.875Z,9.23
2022-11-15T08:22:54.730Z,17.07
2022-11-15T08:25:21.427Z,9.47
2022-11-15T08:27:48.116Z,8.30
2022-11-15T08:30:17.090Z,7.40
2022-11-15T08:32:43.898Z,17.50
2022-11-15T08:35:10.637Z,11.07
2022-11-15T08:37:37.897Z,8.27
2022-11-15T08:40:05.416Z,12.90
2022-11-15T08:42:32.167Z,14.90
2022-11-15T08:44:58.967Z,7.43
2022-11-15T08:47:25.837Z,15.90
2022-11-15T08:49:53.195Z,6.60
2022-11-15T08:52:20.137Z,13.50
2022-11-15T08:54:46.842Z,8.60
2022-11-15T08:57:13.592Z,9.87
2022-11-15T08:59:40.307Z,7.63
2022-11-15T09:02:07.356Z,9.73
2022-11-15T09:04:34.305Z,12.07
2022-11-15T09:07:01.071Z,11.63
2022-11-15T09:09:27.855Z,9.37
2022-11-15T09:11:59.500Z,27.57
2022-11-15T09:14:28.014Z,13.73
2022-11-15T09:16:54.759Z,40.07
2022-11-15T09:19:21.746Z,21.43
2022-11-15T09:21:48.636Z,23.27
2022-11-15T09:24:15.337Z,30.97
2022-11-15T09:26:42.336Z,67.87
2022-11-15T09:29:09.057Z,47.43
2022-11-15T09:31:35.814Z,77.23
2022-11-15T09:34:02.562Z,37.73
2022-11-15T09:36:29.465Z,31.53
2022-11-15T09:38:56.146Z,52.23
2022-11-15T09:42:07.154Z,43.73
2022-11-15T09:44:44.296Z,33.57
2022-11-15T09:47:16.724Z,40.47
2022-11-15T09:49:43.564Z,33.60
2022-11-15T09:52:11.589Z,48.07
2022-11-15T09:54:53.191Z,28.23
2022-11-15T09:57:43.088Z,22.83
2022-11-15T10:03:14.557Z,19.07
2022-11-15T10:05:47.049Z,16.00
2022-11-15T10:08:50.156Z,33.87
2022-11-15T10:11:39.760Z,17.40
2022-11-15T10:14:25.904Z,14.87
2022-11-15T10:17:26.730Z,23.97
2022-11-15T10:20:13.993Z,30.53
2022-11-15T10:22:55.945Z,27.40
2022-11-15T10:25:30.525Z,25.13
2022-11-15T10:28:00.019Z,27.60
2022-11-15T10:30:54.113Z,22.97
2022-11-15T10:33:28.533Z,25.90
2022-11-15T10:36:10.797Z,31.20
2022-11-15T10:38:49.366Z,28.77
2022-11-15T10:41:24.477Z,29.10
2022-11-15T10:44:17.781Z,43.07
2022-11-15T10:46:57.774Z,24.33
2022-11-15T10:49:26.986Z,22.07
2022-11-15T10:52:16.646Z,31.73
2022-11-15T10:54:49.633Z,31.07
2022-11-15T10:57:48.029Z,27.77
2022-11-15T11:00:20.884Z,20.77
2022-11-15T11:02:58.422Z,32.10
2022-11-15T11:05:41.835Z,29.87
2022-11-15T11:08:12.443Z,28.27
2022-11-15T11:11:00.102Z,38.53
2022-11-15T11:13:28.761Z,23.40
2022-11-15T11:16:15.344Z,18.50
2022-11-15T11:19:05.934Z,29.43
2022-11-15T11:22:10.846Z,23.20
2022-11-15T11:24:40.275Z,30.10
2022-11-15T11:27:27.178Z,31.87
2022-11-15T11:30:17.276Z,31.47
2022-11-15T11:33:02.416Z,26.60
2022-11-15T11:36:03.946Z,30.23
2022-11-15T11:38:51.359Z,44.40
2022-11-15T11:41:34.124Z,51.57
2022-11-15T11:44:24.665Z,30.47
2022-11-15T11:47:13.668Z,17.70
2022-11-15T11:49:53.681Z,24.00
2022-11-15T11:52:32.432Z,25.30
2022-11-15T11:55:07.275Z,15.20
2022-11-15T11:57:49.943Z,11.80
2022-11-15T12:00:28.733Z,26.90
2022-11-15T12:03:09.592Z,11.33
2022-11-15T12:05:41.193Z,13.23
2022-11-15T12:08:26.660Z,8.67
2022-11-15T12:11:19.725Z,12.67
2022-11-15T12:13:49.117Z,12.23
2022-11-15T12:16:23.153Z,13.97
2022-11-15T12:18:52.265Z,20.03
2022-11-15T12:21:28.140Z,18.07
2022-11-15T12:24:00.524Z,14.03
2022-11-15T12:26:33.583Z,17.60
2022-11-15T12:29:08.471Z,12.97
2022-11-15T12:31:35.690Z,8.27
2022-11-15T12:34:07.497Z,16.83
2022-11-15T12:36:43.076Z,8.63
2022-11-15T12:39:13.915Z,11.13
2022-11-15T12:41:46.009Z,8.00
2022-11-15T12:44:14.993Z,15.47
2022-11-15T12:46:41.755Z,15.77
2022-11-15T12:49:28.667Z,36.53
2022-11-15T12:52:05.063Z,8.53
2022-11-15T12:54:37.696Z,8.47
2022-11-15T12:57:04.403Z,13.30
2022-11-15T12:59:54.278Z,9.30
2022-11-15T13:02:26.988Z,29.90
2022-11-15T13:04:56.875Z,15.00
2022-11-15T13:07:41.781Z,9.37
2022-11-15T13:10:11.707Z,16.30
2022-11-15T13:12:47.692Z,9.17
2022-11-15T13:15:14.390Z,7.07
2022-11-15T13:17:48.785Z,9.57
2022-11-15T13:20:15.607Z,10.07
2022-11-15T13:23:00.098Z,14.90
2022-11-15T13:25:54.147Z,8.70
2022-11-15T13:28:32.699Z,7.50
2022-11-15T13:31:02.242Z,8.67
2022-11-15T13:33:36.895Z,10.23
2022-11-15T13:36:07.631Z,9.43
2022-11-15T13:38:36.979Z,7.77
2022-11-15T13:41:21.344Z,7.40
2022-11-15T13:43:51.606Z,8.70
2022-11-15T13:46:34.442Z,7.93
2022-11-15T13:49:01.139Z,11.37
2022-11-15T13:51:41.077Z,7.83
2022-11-15T13:54:19.128Z,10.10
2022-11-15T13:56:53.133Z,10.43
2022-11-15T13:59:28.796Z,9.97
2022-11-15T14:01:57.741Z,7.80
2022-11-15T14:04:26.875Z,10.00
2022-11-15T14:06:57.420Z,6.77
2022-11-15T14:09:32.542Z,10.80
2022-11-15T14:11:59.965Z,16.80
2022-11-15T14:14:28.533Z,7.93
2022-11-15T14:17:00.317Z,14.00
2022-11-15T14:19:27.231Z,12.73
2022-11-15T14:22:41.771Z,21.93
2022-11-15T14:25:08.615Z,8.37
2022-11-15T14:27:35.535Z,13.50
2022-11-15T14:30:02.367Z,19.33
2022-11-15T14:32:31.314Z,10.47
2022-11-15T14:35:03.042Z,17.70
2022-11-15T14:37:35.838Z,15.00
2022-11-15T14:40:04.713Z,13.10
2022-11-15T14:42:31.484Z,9.07
2022-11-15T14:44:58.209Z,11.53
2022-11-15T14:47:24.935Z,8.50
2022-11-15T14:49:51.748Z,12.30
2022-11-15T14:52:32.500Z,8.33
2022-11-15T14:55:00.334Z,12.53
2022-11-15T14:57:27.045Z,7.57
2022-11-15T14:59:54.085Z,13.03
2022-11-15T15:02:26.335Z,20.03
2022-11-15T15:04:53.213Z,13.97
2022-11-15T15:07:20.421Z,11.37
2022-11-15T15:09:47.280Z,11.53
2022-11-15T15:12:18.275Z,16.43
2022-11-15T15:14:45.631Z,8.17
2022-11-15T15:17:12.356Z,13.40
2022-11-15T15:19:39.115Z,8.80
2022-11-15T15:22:06.223Z,10.10
2022-11-15T15:24:33.276Z,8.33
2022-11-15T15:26:59.966Z,8.17
2022-11-15T15:29:26.706Z,8.50
2022-11-15T15:31:53.447Z,9.73
2022-11-15T15:34:20.177Z,9.47
2022-11-15T15:36:46.837Z,5.70
2022-11-15T15:39:13.653Z,5.23
2022-11-15T15:41:40.426Z,5.50
2022-11-15T15:44:07.557Z,5.87
2022-11-15T15:46:35.383Z,8.33
2022-11-15T15:49:02.194Z,7.07
2022-11-15T15:51:28.904Z,11.83
2022-11-15T15:53:58.248Z,12.33
2022-11-15T15:56:25.105Z,7.33
2022-11-15T15:58:53.635Z,7.43
2022-11-15T16:01:20.546Z,5.90
2022-11-15T16:03:47.887Z,9.00
2022-11-15T16:06:45.548Z,8.27
2022-11-15T16:09:17.097Z,8.77
2022-11-15T16:11:46.562Z,8.33
2022-11-15T16:14:13.615Z,10.37
2022-11-15T16:16:40.401Z,18.63
2022-11-15T16:19:07.176Z,8.97
2022-11-15T16:21:33.825Z,6.83
2022-11-15T16:24:00.951Z,8.47
2022-11-15T16:26:29.599Z,6.80
2022-11-15T16:28:56.465Z,7.03
2022-11-15T16:31:23.315Z,9.80
2022-11-15T16:33:50.280Z,10.93
2022-11-15T16:36:29.830Z,10.93
2022-11-15T16:38:56.943Z,9.50
2022-11-15T16:41:23.575Z,16.00
2022-11-15T16:43:50.437Z,16.53
2022-11-15T16:46:22.159Z,14.00
2022-11-15T16:48:49.444Z,8.87
2022-11-15T16:51:16.496Z,9.00
2022-11-15T16:53:43.575Z,17.37
2022-11-15T16:56:21.443Z,10.70
2022-11-15T16:58:48.215Z,10.17
2022-11-15T17:01:20.370Z,11.33
2022-11-15T17:03:47.406Z,10.93
2022-11-15T17:06:15.226Z,11.63
2022-11-15T17:08:42.104Z,15.37
2022-11-15T17:11:08.996Z,10.17
2022-11-15T17:13:35.786Z,10.73
2022-11-15T17:16:07.463Z,29.17
2022-11-15T17:18:35.212Z,41.57
2022-11-15T17:21:12.266Z,23.27
2022-11-15T17:23:39.043Z,26.80
2022-11-15T17:26:31.947Z,35.03
2022-11-15T17:28:57.310Z,32.57
2022-11-15T17:31:25.539Z,39.93
2022-11-15T17:33:52.243Z,25.53
2022-11-15T17:36:18.976Z,31.00
2022-11-15T17:38:50.436Z,40.47
2022-11-15T17:41:17.336Z,35.83
2022-11-15T17:43:44.157Z,18.23
2022-11-15T17:46:16.046Z,27.43
2022-11-15T17:48:43.717Z,15.50
2022-11-15T17:51:15.987Z,22.60
2022-11-15T17:53:47.716Z,15.87
2022-11-15T17:56:22.747Z,12.00
2022-11-15T17:58:57.631Z,17.57
2022-11-15T18:01:35.058Z,15.60
2022-11-15T18:04:03.697Z,16.20
2022-11-15T18:06:33.445Z,14.30
2022-11-15T18:09:00.627Z,32.90
2022-11-15T18:11:41.768Z,16.40
2022-11-15T18:14:13.314Z,13.47
2022-11-15T18:16:40.518Z,22.60
2022-11-15T18:19:13.006Z,24.30
2022-11-15T18:21:57.257Z,18.13
2022-11-15T18:24:35.287Z,17.97
2022-11-15T18:27:03.624Z,15.73
2022-11-15T18:29:30.732Z,13.90
2022-11-15T18:31:58.899Z,13.10
2022-11-15T18:34:32.223Z,12.33
2022-11-15T18:36:59.436Z,31.00
2022-11-15T18:39:26.186Z,26.40
2022-11-15T18:41:53.020Z,24.93
2022-11-15T18:44:19.771Z,20.73
2022-11-15T18:46:47.005Z,22.93
2022-11-15T18:49:15.276Z,22.00
2022-11-15T18:51:42.520Z,18.57
2022-11-15T18:54:11.056Z,17.00
2022-11-15T18:56:38.297Z,14.03
2022-11-15T18:59:05.473Z,12.73
2022-11-15T19:01:37.728Z,6.90
2022-11-15T19:04:13.392Z,9.73
2022-11-15T19:06:42.359Z,14.77
2022-11-15T19:09:10.323Z,9.60
2022-11-15T19:11:42.182Z,13.43
2022-11-15T19:14:10.966Z,13.93
2022-11-15T19:16:44.913Z,8.27
2022-11-15T19:19:17.214Z,10.40
2022-11-15T19:21:44.437Z,11.30
2022-11-15T19:24:11.268Z,11.63
2022-11-15T19:26:38.564Z,10.70
2022-11-15T19:29:06.680Z,10.87
2022-11-15T19:31:34.042Z,11.60
2022-11-15T19:34:04.305Z,7.73
2022-11-15T19:36:33.006Z,6.77
2022-11-15T19:39:05.085Z,6.07
2022-11-15T19:41:32.252Z,13.40
2022-11-15T19:43:59.093Z,8.10
2022-11-15T19:46:26.964Z,7.90
2022-11-15T19:48:54.436Z,9.40
2022-11-15T19:51:23.476Z,7.83
2022-11-15T19:53:52.919Z,7.13
2022-11-15T19:56:19.868Z,8.10
2022-11-15T19:58:47.306Z,8.00
2022-11-15T20:01:20.513Z,9.20
2022-11-15T20:03:48.370Z,12.33
2022-11-15T20:06:17.816Z,8.10
2022-11-15T20:08:45.343Z,11.40
2022-11-15T20:11:12.988Z,8.73
2022-11-15T20:13:40.242Z,9.23
2022-11-15T20:16:07.882Z,11.30
2022-11-15T20:18:35.094Z,14.00
2022-11-15T20:21:03.160Z,8.40
2022-11-15T20:23:30.687Z,8.10
2022-11-15T20:25:57.344Z,11.00
2022-11-15T20:28:25.920Z,8.47
2022-11-15T20:30:57.887Z,8.97
2022-11-15T20:33:25.366Z,10.90
2022-11-15T20:35:52.155Z,7.60
2022-11-15T20:38:19.200Z,11.57
2022-11-15T20:40:46.411Z,16.30
2022-11-15T20:43:16.001Z,7.63
2022-11-15T20:45:47.400Z,11.60
2022-11-15T20:48:14.108Z,9.60
2022-11-15T20:50:43.460Z,9.27
2022-11-15T20:53:12.162Z,13.83
2022-11-15T20:55:42.721Z,19.03
2022-11-15T20:58:10.565Z,14.60
2022-11-15T21:00:37.613Z,14.40
2022-11-15T21:03:08.310Z,15.10
2022-11-15T21:05:37.630Z,15.27
2022-11-15T21:08:04.471Z,15.10
2022-11-15T21:10:49.843Z,13.33
2022-11-15T21:13:16.466Z,19.33
2022-11-15T21:15:43.088Z,18.93
2022-11-15T21:18:09.731Z,15.77
2022-11-15T21:20:36.395Z,19.20
2022-11-15T21:23:03.471Z,18.73
2022-11-15T21:25:30.227Z,14.27
2022-11-15T21:27:56.825Z,16.63
2022-11-15T21:30:23.446Z,15.60
2022-11-15T21:32:50.229Z,16.20
2022-11-15T21:35:17.280Z,13.47
2022-11-15T21:37:43.902Z,11.57
2022-11-15T21:40:11.407Z,11.83
2022-11-15T21:42:37.958Z,7.63
2022-11-15T21:45:05.086Z,11.03
2022-11-15T21:47:31.832Z,12.37
2022-11-15T21:49:58.596Z,11.43
2022-11-15T21:52:25.266Z,12.30
2022-11-15T21:54:51.864Z,12.77
2022-11-15T21:57:19.665Z,11.97
2022-11-15T22:00:04.526Z,9.27
2022-11-15T22:02:31.232Z,11.63
2022-11-15T22:04:57.794Z,12.87
2022-11-15T22:07:24.388Z,12.37
2022-11-15T22:09:51.200Z,9.07
2022-11-15T22:12:17.788Z,9.57
2022-11-15T22:14:44.350Z,8.00
2022-11-15T22:17:11.326Z,8.00
2022-11-15T22:19:51.569Z,10.03
2022-11-15T22:22:19.168Z,9.67
2022-11-15T22:24:45.780Z,7.53
2022-11-15T22:27:12.473Z,7.90
2022-11-15T22:29:39.095Z,9.07
2022-11-15T22:32:05.805Z,8.10
2022-11-15T22:34:32.432Z,5.63
2022-11-15T22:37:19.887Z,6.23
2022-11-15T22:39:45.705Z,19.80
2022-11-15T22:42:13.440Z,9.20
2022-11-15T22:44:40.063Z,11.60
2022-11-15T22:47:06.888Z,6.43
2022-11-15T22:49:33.492Z,7.87
2022-11-15T22:52:00.152Z,8.50
2022-11-15T22:54:26.959Z,8.77
2022-11-15T22:56:53.686Z,7.27
2022-11-15T22:59:20.293Z,8.87
2022-11-15T23:01:46.964Z,5.67
2022-11-15T23:04:13.630Z,8.10
2022-11-15T23:06:40.243Z,10.50
2022-11-15T23:09:07.106Z,9.83
2022-11-15T23:11:52.240Z,13.87
2022-11-15T23:14:18.874Z,8.63
2022-11-15T23:16:45.548Z,7.33
2022-11-15T23:19:12.824Z,6.43
2022-11-15T23:22:03.022Z,10.43
2022-11-15T23:24:32.092Z,5.83
2022-11-15T23:27:01.548Z,7.50
2022-11-15T23:29:28.840Z,9.33
2022-11-15T23:32:14.385Z,14.40
2022-11-15T23:34:43.926Z,15.63
2022-11-15T23:37:13.657Z,16.77
2022-11-15T23:39:40.355Z,15.50
2022-11-15T23:42:09.321Z,17.63
2022-11-15T23:44:36.774Z,14.23
2022-11-15T23:47:03.495Z,15.30
2022-11-15T23:49:30.097Z,22.93
2022-11-15T23:51:56.711Z,21.33
2022-11-15T23:54:23.350Z,42.03
2022-11-15T23:56:49.960Z,15.93
2022-11-15T23:59:16.720Z,18.30
